createdAt,value
2019-04-23T00:03:54.859Z,101799.22
2019-04-23T00:06:47.572Z,101793.19
2019-04-23T00:09:07.305Z,101800.28
2019-04-23T00:11:33.433Z,101796.14
2019-04-23T00:14:15.197Z,101796.77
2019-04-23T00:16:45.947Z,101793.25
2019-04-23T00:19:16.953Z,101789.14
2019-04-23T00:21:52.100Z,101800.16
2019-04-23T00:25:11.750Z,101799.59
2019-04-23T00:29:56.577Z,101793.99
2019-04-23T00:35:01.091Z,101797.34
2019-04-23T00:40:11.383Z,101801.95
2019-04-23T00:42:38.410Z,101800.61
2019-04-23T00:45:00.288Z,101800.14
2019-04-23T00:47:38.313Z,101800.42
2019-04-23T00:50:15.983Z,101799.93
2019-04-23T00:52:40.064Z,101804.07
2019-04-23T00:55:15.946Z,101802.14
2019-04-23T00:57:50.141Z,101803.60
2019-04-23T01:00:29.582Z,101810.92
2019-04-23T01:02:53.366Z,101810.30
2019-04-23T01:05:24.939Z,101811.54
2019-04-23T01:08:01.930Z,101807.99
2019-04-23T01:10:52.342Z,101817.61
2019-04-23T01:13:22.947Z,101818.23
2019-04-23T01:15:54.256Z,101817.36
2019-04-23T01:18:49.120Z,101816.49
2019-04-23T01:20:53.923Z,101821.65
2019-04-23T01:23:37.752Z,101813.08
2019-04-23T01:26:21.241Z,101818.55
2019-04-23T01:29:05.314Z,101820.73
2019-04-23T01:31:47.602Z,101817.70
2019-04-23T01:34:08.857Z,101811.09
2019-04-23T01:36:33.263Z,101814.14
2019-04-23T01:41:44.829Z,101810.23
2019-04-23T01:44:15.674Z,101814.24
2019-04-23T01:46:49.416Z,101813.63
2019-04-23T01:49:25.039Z,101807.50
2019-04-23T01:51:54.610Z,101817.05
2019-04-23T01:54:25.947Z,101814.13
2019-04-23T01:56:56.766Z,101811.16
2019-04-23T01:59:31.808Z,101811.03
2019-04-23T02:02:08.703Z,101811.71
2019-04-23T02:04:36.557Z,101813.43
2019-04-23T02:07:15.520Z,101814.89
2019-04-23T02:09:41.973Z,101816.22
2019-04-23T02:12:11.228Z,101812.68
2019-04-23T02:14:50.171Z,101816.15
2019-04-23T02:17:25.447Z,101816.30
2019-04-23T02:19:52.503Z,101822.75
2019-04-23T02:22:51.883Z,101825.22
2019-04-23T02:25:25.125Z,101822.78
2019-04-23T02:27:52.171Z,101824.28
2019-04-23T02:30:40.241Z,101834.17
2019-04-23T02:33:12.530Z,101834.30
2019-04-23T02:35:46.381Z,101833.48
2019-04-23T02:40:49.583Z,101831.41
2019-04-23T02:45:52.142Z,101835.09
2019-04-23T02:48:19.433Z,101840.22
2019-04-23T02:50:57.828Z,101837.30
2019-04-23T03:01:18.341Z,101849.70
2019-04-23T03:03:36.870Z,101847.09
2019-04-23T03:06:14.505Z,101850.56
2019-04-23T03:08:46.314Z,101850.87
2019-04-23T03:18:51.638Z,101866.56
2019-04-23T03:24:11.208Z,101869.13
2019-04-23T03:27:10.337Z,101869.44
2019-04-23T03:35:10.309Z,101871.38
2019-04-23T03:39:52.126Z,101869.58
2019-04-23T03:47:18.651Z,101876.02
2019-04-23T03:49:46.451Z,101876.20
2019-04-23T03:52:27.819Z,101879.95
2019-04-23T03:54:45.642Z,101884.69
2019-04-23T04:00:22.867Z,101883.48
2019-04-23T04:04:49.790Z,101876.92
2019-04-23T04:12:37.720Z,101892.20
2019-04-23T04:15:18.280Z,101886.16
2019-04-23T04:17:54.849Z,101890.06
2019-04-23T04:20:17.845Z,101887.63
2019-04-23T04:23:04.246Z,101883.30
2019-04-23T04:28:08.021Z,101885.80
2019-04-23T04:30:27.685Z,101883.08
2019-04-23T04:33:23.668Z,101883.69
2019-04-23T04:35:22.809Z,101879.66
2019-04-23T04:38:18.110Z,101885.63
2019-04-23T04:43:16.084Z,101880.80
2019-04-23T04:45:49.892Z,101877.20
2019-04-23T04:48:14.094Z,101879.59
2019-04-23T04:50:49.188Z,101872.73
2019-04-23T04:53:33.515Z,101874.68
2019-04-23T04:55:55.478Z,101884.61
2019-04-23T04:58:23.580Z,101879.80
2019-04-23T05:03:26.663Z,101884.16
2019-04-23T05:08:39.700Z,101881.39
2019-04-23T05:11:11.739Z,101874.47
2019-04-23T05:16:06.149Z,101875.91
2019-04-23T05:21:14.098Z,101872.38
2019-04-23T05:23:45.888Z,101872.02
2019-04-23T05:26:22.388Z,101879.42
2019-04-23T05:31:23.633Z,101880.22
2019-04-23T05:34:01.057Z,101879.60
2019-04-23T05:36:43.415Z,101880.98
2019-04-23T05:41:33.729Z,101885.23
2019-04-23T05:44:02.017Z,101859.27
2019-04-23T05:46:45.422Z,101888.67
2019-04-23T05:49:07.653Z,101896.13
2019-04-23T05:51:48.949Z,101896.22
2019-04-23T05:54:12.904Z,101893.51
2019-04-23T05:56:58.466Z,101895.27
2019-04-23T06:04:24.504Z,101894.46
2019-04-23T06:09:26.474Z,101893.98
2019-04-23T06:12:06.081Z,101897.21
2019-04-23T06:14:32.898Z,101900.22
2019-04-23T06:17:03.957Z,101893.86
2019-04-23T06:19:24.619Z,101897.45
2019-04-23T06:27:13.406Z,101896.96
2019-04-23T06:29:59.477Z,101900.20
2019-04-23T06:32:14.360Z,101903.04
2019-04-23T06:34:50.091Z,101906.36
2019-04-23T06:37:28.090Z,101904.69
2019-04-23T06:39:57.039Z,101908.19
2019-04-23T06:42:32.564Z,101913.00
2019-04-23T06:44:57.925Z,101903.22
2019-04-23T06:47:27.827Z,101907.45
2019-04-23T06:49:58.201Z,101907.67
2019-04-23T06:52:50.147Z,101908.19
2019-04-23T06:55:12.284Z,101905.63
2019-04-23T06:57:38.414Z,101911.80
2019-04-23T07:00:24.050Z,101910.31
2019-04-23T07:02:49.472Z,101923.18
2019-04-23T07:05:27.218Z,101920.03
2019-04-23T07:07:50.271Z,101924.11
2019-04-23T07:10:26.649Z,101916.80
2019-04-23T07:12:56.274Z,101916.25
2019-04-23T07:15:50.107Z,101918.41
2019-04-23T07:17:57.360Z,101921.97
2019-04-23T07:20:34.610Z,101918.45
2019-04-23T07:23:14.160Z,101914.59
2019-04-23T07:25:45.743Z,101920.26
2019-04-23T07:28:13.235Z,101922.97
2019-04-23T07:30:55.899Z,101926.13
2019-04-23T07:33:18.875Z,101920.11
2019-04-23T07:35:52.230Z,101924.93
2019-04-23T07:38:48.085Z,101926.73
2019-04-23T07:41:45.930Z,101926.55
2019-04-23T07:44:24.888Z,101931.66
2019-04-23T07:49:30.890Z,101930.20
2019-04-23T07:52:06.663Z,101931.74
2019-04-23T07:54:42.193Z,101929.68
2019-04-23T07:57:12.149Z,101928.25
2019-04-23T07:59:47.361Z,101930.61
2019-04-23T08:02:15.932Z,101930.37
2019-04-23T08:04:57.460Z,101929.97
2019-04-23T08:07:18.210Z,101932.64
2019-04-23T08:09:47.756Z,101938.55
2019-04-23T08:14:53.488Z,101935.20
2019-04-23T08:17:26.231Z,101936.12
2019-04-23T08:22:37.361Z,101931.06
2019-04-23T08:27:45.213Z,101932.28
2019-04-23T08:30:09.761Z,101931.66
2019-04-23T08:32:53.916Z,101930.72
2019-04-23T08:35:23.145Z,101930.08
2019-04-23T08:40:28.438Z,101930.25
2019-04-23T08:45:29.905Z,101932.56
2019-04-23T08:50:44.080Z,101928.14
2019-04-23T08:53:31.276Z,101932.55
2019-04-23T08:58:31.664Z,101927.15
2019-04-23T09:01:05.657Z,101923.45
2019-04-23T09:08:38.954Z,101916.41
2019-04-23T09:11:30.098Z,101913.47
2019-04-23T09:16:22.149Z,101920.06
2019-04-23T09:19:02.823Z,101916.67
2019-04-23T09:21:30.963Z,101923.47
2019-04-23T09:23:59.046Z,101923.47
2019-04-23T09:26:33.117Z,101925.16
2019-04-23T09:29:17.302Z,101922.04
2019-04-23T09:32:07.741Z,101916.31
2019-04-23T09:34:18.569Z,101936.80
2019-04-23T09:39:49.949Z,101905.84
2019-04-23T09:42:49.390Z,101909.90
2019-04-23T09:45:28.098Z,101913.41
2019-04-23T09:48:06.719Z,101914.17
2019-04-23T09:50:38.259Z,101908.75
2019-04-23T09:55:37.433Z,101892.05
2019-04-23T09:58:11.639Z,101905.53
2019-04-23T10:01:02.010Z,101905.53
2019-04-23T10:03:12.413Z,101905.92
2019-04-23T10:05:39.953Z,101905.92
2019-04-23T10:08:15.261Z,101907.59
2019-04-23T10:10:38.406Z,101899.94
2019-04-23T10:13:11.526Z,101895.86
2019-04-23T10:15:47.696Z,101919.44
2019-04-23T10:18:18.316Z,101915.73
2019-04-23T10:20:50.074Z,101903.05
2019-04-23T10:23:23.198Z,101913.07
2019-04-23T10:25:56.270Z,101903.20
2019-04-23T10:28:33.803Z,101900.66
2019-04-23T10:31:07.143Z,101898.27
2019-04-23T10:33:39.944Z,101901.22
2019-04-23T10:36:15.792Z,101892.59
2019-04-23T10:38:51.299Z,101893.77
2019-04-23T10:41:20.109Z,101901.89
2019-04-23T10:43:54.971Z,101891.26
2019-04-23T10:46:49.418Z,101889.77
2019-04-23T10:54:40.900Z,101901.41
2019-04-23T10:59:48.981Z,101891.77
2019-04-23T11:04:57.810Z,101891.55
2019-04-23T11:10:07.231Z,101889.81
2019-04-23T11:13:07.827Z,101890.75
2019-04-23T11:15:36.295Z,101886.23
2019-04-23T11:22:54.901Z,101893.00
2019-04-23T11:28:13.626Z,101885.70
2019-04-23T11:33:34.124Z,101886.66
2019-04-23T11:38:13.740Z,101885.70
2019-04-23T11:41:20.741Z,101887.37
2019-04-23T11:43:37.783Z,101886.45
2019-04-23T11:46:32.323Z,101876.98
2019-04-23T11:49:01.830Z,101876.88
2019-04-23T11:54:07.303Z,101874.64
2019-04-23T11:56:51.477Z,101873.59
2019-04-23T11:59:13.462Z,101870.78
2019-04-23T12:01:49.907Z,101867.00
2019-04-23T12:09:40.145Z,101859.00
2019-04-23T12:12:23.509Z,101827.38
2019-04-23T12:22:29.802Z,101845.46
2019-04-23T12:27:31.466Z,101855.42
2019-04-23T12:30:32.438Z,101848.08
2019-04-23T12:35:19.278Z,101862.53
2019-04-23T12:37:45.017Z,101855.72
2019-04-23T12:40:25.139Z,101846.53
2019-04-23T12:43:06.990Z,101847.37
2019-04-23T12:48:16.215Z,101846.73
2019-04-23T12:50:48.785Z,101849.35
2019-04-23T13:00:54.511Z,101841.48
2019-04-23T13:03:29.907Z,101832.76
2019-04-23T13:05:59.325Z,101844.48
2019-04-23T13:11:15.333Z,101835.58
2019-04-23T13:13:45.899Z,101837.33
2019-04-23T13:16:28.067Z,101831.22
2019-04-23T13:18:49.591Z,101833.87
2019-04-23T13:21:46.734Z,101833.69
2019-04-23T13:24:18.751Z,101826.42
2019-04-23T13:26:57.355Z,101829.98
2019-04-23T13:29:43.233Z,101828.39
2019-04-23T13:31:58.236Z,101829.47
2019-04-23T13:34:42.831Z,101828.20
2019-04-23T13:37:12.031Z,101823.74
2019-04-23T13:39:39.726Z,101822.66
2019-04-23T13:42:25.152Z,101820.78
2019-04-23T13:44:48.396Z,101816.69
2019-04-23T13:47:36.768Z,101816.14
2019-04-23T13:49:57.206Z,101817.81
2019-04-23T13:53:03.051Z,101817.07
2019-04-23T13:58:00.120Z,101819.38
2019-04-23T14:00:09.025Z,101814.87
2019-04-23T14:02:43.900Z,101814.22
2019-04-23T14:05:24.045Z,101821.80
2019-04-23T14:07:56.535Z,101812.67
2019-04-23T14:10:39.726Z,101808.05
2019-04-23T14:13:23.667Z,101807.64
2019-04-23T14:15:55.488Z,101805.52
2019-04-23T14:18:36.123Z,101802.70
2019-04-23T14:20:42.066Z,101800.94
2019-04-23T14:26:05.266Z,101803.41
2019-04-23T14:28:28.468Z,101798.92
2019-04-23T14:33:38.313Z,101798.28
2019-04-23T14:36:19.392Z,101795.45
2019-04-23T14:38:41.677Z,101796.44
2019-04-23T14:41:21.743Z,101794.75
2019-04-23T14:43:57.936Z,101768.37
2019-04-23T14:48:59.798Z,101799.52
2019-04-23T14:51:46.716Z,101798.56
2019-04-23T14:54:09.409Z,101798.10
2019-04-23T14:56:39.085Z,101790.75
2019-04-23T14:59:07.126Z,101797.04
2019-04-23T15:01:42.810Z,101798.17
2019-04-23T15:04:19.275Z,101797.23
2019-04-23T15:12:11.865Z,101791.23
2019-04-23T15:14:46.153Z,101792.69
2019-04-23T15:17:13.175Z,101792.66
2019-04-23T15:20:04.819Z,101786.77
2019-04-23T15:22:32.986Z,101785.47
2019-04-23T15:25:19.354Z,101780.94
2019-04-23T15:30:04.176Z,101787.84
2019-04-23T15:32:56.652Z,101784.73
2019-04-23T15:35:29.515Z,101781.96
2019-04-23T15:38:30.650Z,101782.77
2019-04-23T15:40:28.421Z,101783.16
2019-04-23T15:43:05.915Z,101781.88
2019-04-23T15:45:41.602Z,101782.16
2019-04-23T15:48:11.611Z,101783.31
2019-04-23T15:50:43.628Z,101785.52
2019-04-23T15:53:14.388Z,101786.37
2019-04-23T15:55:55.446Z,101788.00
2019-04-23T15:58:33.300Z,101789.81
2019-04-23T16:01:21.407Z,101789.70
2019-04-23T16:03:24.244Z,101788.34
2019-04-23T16:05:55.332Z,101791.52
2019-04-23T16:11:39.480Z,101793.68
2019-04-23T16:14:17.054Z,101792.98
2019-04-23T16:19:24.506Z,101798.70
2019-04-23T16:22:08.467Z,101801.50
2019-04-23T16:24:26.619Z,101801.88
2019-04-23T16:27:11.163Z,101796.39
2019-04-23T16:29:54.088Z,101795.87
2019-04-23T16:34:54.150Z,101798.77
2019-04-23T16:37:27.204Z,101800.84
2019-04-23T16:40:10.378Z,101797.73
2019-04-23T16:42:38.232Z,101795.63
2019-04-23T16:45:14.850Z,101803.14
2019-04-23T16:47:49.007Z,101803.88
2019-04-23T16:50:19.429Z,101799.66
2019-04-23T16:53:04.922Z,101803.11
2019-04-23T16:55:29.064Z,101804.02
2019-04-23T16:58:15.611Z,101809.81
2019-04-23T17:00:43.817Z,101808.64
2019-04-23T17:03:23.039Z,101805.96
2019-04-23T17:05:52.917Z,101809.36
2019-04-23T17:11:13.036Z,101810.75
2019-04-23T17:13:24.180Z,101816.34
2019-04-23T17:16:16.752Z,101807.69
2019-04-23T17:18:31.939Z,101809.87
2019-04-23T17:21:01.986Z,101814.61
2019-04-23T17:24:02.947Z,101816.34
2019-04-23T17:28:44.498Z,101816.41
2019-04-23T17:31:32.351Z,101818.31
2019-04-23T17:33:58.912Z,101825.39
2019-04-23T17:39:07.820Z,101828.19
2019-04-23T17:41:49.989Z,101828.34
2019-04-23T17:46:54.069Z,101829.86
2019-04-23T17:49:30.044Z,101837.81
2019-04-23T17:52:05.109Z,101840.36
2019-04-23T17:54:34.420Z,101842.77
2019-04-23T18:00:04.886Z,101837.69
2019-04-23T18:05:06.256Z,101838.84
2019-04-23T18:07:43.811Z,101840.88
2019-04-23T18:12:43.522Z,101841.59
2019-04-23T18:15:09.569Z,101843.62
2019-04-23T18:17:49.522Z,101842.41
2019-04-23T18:20:37.963Z,101850.20
2019-04-23T18:23:10.091Z,101848.52
2019-04-23T18:25:58.052Z,101850.17
2019-04-23T18:28:33.543Z,101845.43
2019-04-23T18:31:10.626Z,101850.19
2019-04-23T18:36:12.943Z,101851.19
2019-04-23T18:38:59.793Z,101854.56
2019-04-23T18:41:24.083Z,101857.07
2019-04-23T18:44:05.797Z,101858.59
2019-04-23T18:46:37.301Z,101858.25
2019-04-23T18:49:13.520Z,101858.03
2019-04-23T18:51:41.741Z,101860.89
2019-04-23T18:54:14.823Z,101860.53
2019-04-23T18:57:03.364Z,101855.80
2019-04-23T18:59:30.479Z,101858.11
2019-04-23T19:02:09.570Z,101855.09
2019-04-23T19:07:42.370Z,101854.06
2019-04-23T19:13:03.843Z,101858.47
2019-04-23T19:15:37.288Z,101856.61
2019-04-23T19:20:51.759Z,101859.45
2019-04-23T19:23:16.041Z,101852.67
2019-04-23T19:25:51.715Z,101860.24
2019-04-23T19:28:34.602Z,101860.48
2019-04-23T19:31:07.354Z,101853.41
2019-04-23T19:33:47.904Z,101861.14
2019-04-23T19:36:17.260Z,101862.12
2019-04-23T19:38:54.270Z,101865.33
2019-04-23T19:41:25.662Z,101858.38
2019-04-23T19:43:59.469Z,101872.39
2019-04-23T19:46:41.579Z,101871.37
2019-04-23T20:04:41.165Z,101864.22
2019-04-23T20:09:50.776Z,101870.30
2019-04-23T20:12:25.928Z,101869.25
2019-04-23T20:14:52.071Z,101873.61
2019-04-23T20:17:39.859Z,101875.02
2019-04-23T20:19:54.898Z,101876.32
2019-04-23T20:22:41.744Z,101879.39
2019-04-23T20:25:34.744Z,101885.55
2019-04-23T20:31:58.247Z,101893.11
2019-04-23T20:35:59.911Z,101884.92
2019-04-23T20:38:33.328Z,101883.86
2019-04-23T20:41:03.962Z,101885.70
2019-04-23T20:43:46.857Z,101883.31
2019-04-23T20:46:10.949Z,101880.77
2019-04-23T20:48:48.446Z,101886.77
2019-04-23T20:51:14.311Z,101889.67
2019-04-23T20:53:57.334Z,101889.82
2019-04-23T20:56:26.507Z,101890.20
2019-04-23T20:58:59.781Z,101890.45
2019-04-23T21:04:00.036Z,101894.22
2019-04-23T21:06:47.049Z,101891.34
2019-04-23T21:09:27.834Z,101894.83
2019-04-23T21:11:58.068Z,101903.34
2019-04-23T21:16:56.650Z,101914.78
2019-04-23T21:19:34.120Z,101908.63
2019-04-23T21:22:09.823Z,101911.19
2019-04-23T21:24:44.946Z,101910.98
2019-04-23T21:27:21.844Z,101917.27
2019-04-23T21:29:57.020Z,101915.33
2019-04-23T21:32:29.728Z,101911.93
2019-04-23T21:35:05.273Z,101918.92
2019-04-23T21:37:49.456Z,101918.31
2019-04-23T21:43:10.488Z,101919.85
2019-04-23T21:45:53.053Z,101916.86
2019-04-23T21:48:28.046Z,101913.84
2019-04-23T21:50:58.354Z,101917.38
2019-04-23T21:53:24.288Z,101835.73
2019-04-23T21:58:36.796Z,101911.44
2019-04-23T22:01:19.786Z,101915.95
2019-04-23T22:06:33.127Z,101915.77
2019-04-23T22:09:10.397Z,101913.37
2019-04-23T22:11:48.292Z,101914.86
2019-04-23T22:14:13.204Z,101910.67
2019-04-23T22:16:50.073Z,101912.97
2019-04-23T22:19:19.734Z,101914.13
2019-04-23T22:26:44.994Z,101915.47
2019-04-23T22:29:26.221Z,101919.55
2019-04-23T22:31:53.735Z,101915.39
2019-04-23T22:34:42.939Z,101913.30
2019-04-23T22:37:19.391Z,101909.27
2019-04-23T22:39:46.965Z,101915.06
2019-04-23T22:42:26.846Z,101908.77
2019-04-23T22:47:28.445Z,101909.22
2019-04-23T22:50:10.880Z,101909.44
2019-04-23T22:55:07.715Z,101910.97
2019-04-23T22:57:56.445Z,101909.29
2019-04-23T23:00:14.379Z,101911.14
2019-04-23T23:05:56.388Z,101907.10
2019-04-23T23:08:17.974Z,101906.23
2019-04-23T23:10:53.341Z,101897.46
2019-04-23T23:16:02.053Z,101902.41
2019-04-23T23:21:07.920Z,101905.50
2019-04-23T23:23:40.835Z,101905.14
2019-04-23T23:28:44.697Z,101905.78
2019-04-23T23:31:22.510Z,101911.02
2019-04-23T23:33:55.805Z,101909.61
2019-04-23T23:41:35.606Z,101913.69
2019-04-23T23:46:46.220Z,101915.99
2019-04-23T23:57:13.889Z,101915.07
2019-04-23T23:59:41.924Z,101917.91
